sensor_id;sensor_type;location;lat;lon;timestamp;pressure;altitude;pressure_sealevel;temperature;humidity
69982;BME280;57319;56.274;43.980;2022-09-13T00:00:49;100209.91;;;6.21;76.80
69982;BME280;57319;56.274;43.980;2022-09-13T00:03:16;100215.03;;;6.23;76.65
69982;BME280;57319;56.274;43.980;2022-09-13T00:05:41;100211.56;;;6.19;76.70
69982;BME280;57319;56.274;43.980;2022-09-13T00:08:08;100206.44;;;6.16;76.88
69982;BME280;57319;56.274;43.980;2022-09-13T00:10:35;100216.63;;;6.15;76.92
69982;BME280;57319;56.274;43.980;2022-09-13T00:13:03;100219.19;;;6.13;77.18
69982;BME280;57319;56.274;43.980;2022-09-13T00:15:28;100220.81;;;6.09;77.24
69982;BME280;57319;56.274;43.980;2022-09-13T00:17:54;100213.94;;;6.04;77.21
69982;BME280;57319;56.274;43.980;2022-09-13T00:20:20;100211.34;;;6.01;77.45
69982;BME280;57319;56.274;43.980;2022-09-13T00:22:46;100217.22;;;5.95;77.61
69982;BME280;57319;56.274;43.980;2022-09-13T00:25:11;100206.91;;;5.90;77.62
69982;BME280;57319;56.274;43.980;2022-09-13T00:27:37;100204.31;;;5.87;77.77
69982;BME280;57319;56.274;43.980;2022-09-13T00:30:04;100203.38;;;5.82;78.20
69982;BME280;57319;56.274;43.980;2022-09-13T00:32:30;100203.38;;;5.82;78.10
69982;BME280;57319;56.274;43.980;2022-09-13T00:34:56;100208.50;;;5.82;77.96
69982;BME280;57319;56.274;43.980;2022-09-13T00:37:22;100211.06;;;5.84;78.09
69982;BME280;57319;56.274;43.980;2022-09-13T00:39:48;100208.50;;;5.84;78.05
69982;BME280;57319;56.274;43.980;2022-09-13T00:42:14;100207.66;;;5.82;78.05
69982;BME280;57319;56.274;43.980;2022-09-13T00:50:01;100215.31;;;5.82;78.04
69982;BME280;57319;56.274;43.980;2022-09-13T00:52:30;100202.50;;;5.78;77.93
69982;BME280;57319;56.274;43.980;2022-09-13T00:55:02;100205.06;;;5.78;77.83
69982;BME280;57319;56.274;43.980;2022-09-13T00:57:30;100210.97;;;5.76;77.90
69982;BME280;57319;56.274;43.980;2022-09-13T01:00:05;100212.63;;;5.74;78.20
69982;BME280;57319;56.274;43.980;2022-09-13T01:03:23;100216.06;;;5.73;77.87
69982;BME280;57319;56.274;43.980;2022-09-13T01:05:28;100212.59;;;5.71;78.19
69982;BME280;57319;56.274;43.980;2022-09-13T01:07:55;100212.56;;;5.66;78.42
69982;BME280;57319;56.274;43.980;2022-09-13T01:10:21;100218.53;;;5.68;78.10
69982;BME280;57319;56.274;43.980;2022-09-13T01:13:03;100219.41;;;5.70;78.12
69982;BME280;57319;56.274;43.980;2022-09-13T01:15:36;100218.53;;;5.70;78.11
69982;BME280;57319;56.274;43.980;2022-09-13T01:18:02;100223.66;;;5.71;77.93
69982;BME280;57319;56.274;43.980;2022-09-13T01:23:24;100216.84;;;5.69;77.78
69982;BME280;57319;56.274;43.980;2022-09-13T01:26:21;100215.97;;;5.68;78.08
69982;BME280;57319;56.274;43.980;2022-09-13T01:34:00;100218.44;;;5.60;78.32
69982;BME280;57319;56.274;43.980;2022-09-13T01:51:16;100200.38;;;5.50;78.66
69982;BME280;57319;56.274;43.980;2022-09-13T01:58:56;100187.53;;;5.45;78.61
69982;BME280;57319;56.274;43.980;2022-09-13T02:04:04;100186.66;;;5.41;78.82
69982;BME280;57319;56.274;43.980;2022-09-13T02:09:31;100184.94;;;5.42;78.84
69982;BME280;57319;56.274;43.980;2022-09-13T02:12:12;100189.22;;;5.43;78.61
69982;BME280;57319;56.274;43.980;2022-09-13T02:14:42;100184.13;;;5.43;78.81
69982;BME280;57319;56.274;43.980;2022-09-13T02:17:12;100185.72;;;5.38;78.57
69982;BME280;57319;56.274;43.980;2022-09-13T02:19:46;100185.69;;;5.35;78.64
69982;BME280;57319;56.274;43.980;2022-09-13T02:22:16;100184.81;;;5.34;79.22
69982;BME280;57319;56.274;43.980;2022-09-13T02:24:45;100179.69;;;5.33;78.89
69982;BME280;57319;56.274;43.980;2022-09-13T02:27:17;100181.41;;;5.32;79.06
69982;BME280;57319;56.274;43.980;2022-09-13T02:29:47;100179.66;;;5.30;79.17
69982;BME280;57319;56.274;43.980;2022-09-13T02:32:21;100191.59;;;5.31;79.04
69982;BME280;57319;56.274;43.980;2022-09-13T02:34:54;100179.59;;;5.26;79.33
69982;BME280;57319;56.274;43.980;2022-09-13T02:37:25;100179.63;;;5.28;79.32
69982;BME280;57319;56.274;43.980;2022-09-13T02:39:56;100185.56;;;5.27;79.44
69982;BME280;57319;56.274;43.980;2022-09-13T02:42:31;100184.81;;;5.34;79.25
69982;BME280;57319;56.274;43.980;2022-09-13T02:45:01;100191.66;;;5.37;78.98
69982;BME280;57319;56.274;43.980;2022-09-13T02:53:24;100178.03;;;5.35;79.01
69982;BME280;57319;56.274;43.980;2022-09-13T02:56:01;100185.59;;;5.30;79.11
69982;BME280;57319;56.274;43.980;2022-09-13T03:01:33;100181.34;;;5.28;79.28
69982;BME280;57319;56.274;43.980;2022-09-13T03:04:01;100185.66;;;5.32;79.05
69982;BME280;57319;56.274;43.980;2022-09-13T03:06:28;100176.22;;;5.28;79.31
69982;BME280;57319;56.274;43.980;2022-09-13T03:08:55;100170.25;;;5.27;79.62
69982;BME280;57319;56.274;43.980;2022-09-13T03:11:55;100172.81;;;5.29;79.80
69982;BME280;57319;56.274;43.980;2022-09-13T03:20:23;100175.53;;;5.38;79.16
69982;BME280;57319;56.274;43.980;2022-09-13T03:28:39;100183.34;;;5.49;79.29
69982;BME280;57319;56.274;43.980;2022-09-13T03:31:18;100182.56;;;5.53;79.15
69982;BME280;57319;56.274;43.980;2022-09-13T03:39:11;100174.16;;;5.61;78.99
69982;BME280;57319;56.274;43.980;2022-09-13T03:41:45;100177.63;;;5.67;79.05
69982;BME280;57319;56.274;43.980;2022-09-13T03:44:15;100178.56;;;5.70;78.97
69982;BME280;57319;56.274;43.980;2022-09-13T03:46:49;100173.50;;;5.75;78.71
69982;BME280;57319;56.274;43.980;2022-09-13T03:49:18;100174.44;;;5.80;78.90
69982;BME280;57319;56.274;43.980;2022-09-13T03:51:47;100167.63;;;5.82;78.64
69982;BME280;57319;56.274;43.980;2022-09-13T03:54:20;100164.34;;;5.91;78.29
69982;BME280;57319;56.274;43.980;2022-09-13T03:59:32;100167.09;;;6.03;77.92
69982;BME280;57319;56.274;43.980;2022-09-13T04:01:57;100166.31;;;6.09;78.07
69982;BME280;57319;56.274;43.980;2022-09-13T04:04:23;100168.91;;;6.12;77.73
69982;BME280;57319;56.274;43.980;2022-09-13T04:06:48;100174.94;;;6.19;77.71
69982;BME280;57319;56.274;43.980;2022-09-13T04:09:14;100175.88;;;6.25;77.41
69982;BME280;57319;56.274;43.980;2022-09-13T04:11:40;100175.09;;;6.33;77.13
69982;BME280;57319;56.274;43.980;2022-09-13T04:14:05;100169.19;;;6.37;76.84
69982;BME280;57319;56.274;43.980;2022-09-13T04:16:31;100167.56;;;6.47;76.80
69982;BME280;57319;56.274;43.980;2022-09-13T04:18:56;100180.38;;;6.48;76.71
69982;BME280;57319;56.274;43.980;2022-09-13T04:21:22;100173.63;;;6.55;76.94
69982;BME280;57319;56.274;43.980;2022-09-13T04:23:49;100189.09;;;6.66;76.35
69982;BME280;57319;56.274;43.980;2022-09-13T04:26:14;100183.19;;;6.73;76.26
69982;BME280;57319;56.274;43.980;2022-09-13T04:28:40;100189.25;;;6.83;75.75
69982;BME280;57319;56.274;43.980;2022-09-13T04:31:06;100189.31;;;6.87;75.81
69982;BME280;57319;56.274;43.980;2022-09-13T04:33:31;100193.63;;;6.94;75.74
69982;BME280;57319;56.274;43.980;2022-09-13T04:35:57;100194.56;;;7.03;75.23
69982;BME280;57319;56.274;43.980;2022-09-13T04:38:24;100195.47;;;7.09;75.19
69982;BME280;57319;56.274;43.980;2022-09-13T04:40:53;100191.25;;;7.15;75.05
69982;BME280;57319;56.274;43.980;2022-09-13T04:43:20;100189.56;;;7.18;74.82
69982;BME280;57319;56.274;43.980;2022-09-13T04:45:46;100193.00;;;7.22;74.44
69982;BME280;57319;56.274;43.980;2022-09-13T04:48:11;100191.34;;;7.25;74.35
69982;BME280;57319;56.274;43.980;2022-09-13T04:50:37;100201.59;;;7.25;73.98
69982;BME280;57319;56.274;43.980;2022-09-13T04:53:02;100196.41;;;7.19;74.34
69982;BME280;57319;56.274;43.980;2022-09-13T04:55:28;100204.97;;;7.21;74.33
69982;BME280;57319;56.274;43.980;2022-09-13T04:57:54;100209.28;;;7.25;74.08
69982;BME280;57319;56.274;43.980;2022-09-13T05:00:21;100209.28;;;7.27;74.07
69982;BME280;57319;56.274;43.980;2022-09-13T05:02:46;100207.56;;;7.29;74.26
69982;BME280;57319;56.274;43.980;2022-09-13T05:05:12;100210.19;;;7.35;73.98
69982;BME280;57319;56.274;43.980;2022-09-13T05:07:38;100219.63;;;7.44;73.62
69982;BME280;57319;56.274;43.980;2022-09-13T05:10:04;100211.19;;;7.54;72.82
69982;BME280;57319;56.274;43.980;2022-09-13T05:12:30;100221.53;;;7.70;72.80
69982;BME280;57319;56.274;43.980;2022-09-13T05:14:55;100222.47;;;7.81;72.17
69982;BME280;57319;56.274;43.980;2022-09-13T05:17:21;100221.69;;;7.91;71.58
69982;BME280;57319;56.274;43.980;2022-09-13T05:19:47;100220.03;;;8.03;71.48
69982;BME280;57319;56.274;43.980;2022-09-13T05:22:13;100212.34;;;8.10;71.32
69982;BME280;57319;56.274;43.980;2022-09-13T05:24:39;100214.97;;;8.21;71.17
69982;BME280;57319;56.274;43.980;2022-09-13T05:27:04;100219.25;;;8.27;70.86
69982;BME280;57319;56.274;43.980;2022-09-13T05:29:30;100231.28;;;8.39;70.62
69982;BME280;57319;56.274;43.980;2022-09-13T05:31:56;100216.81;;;8.45;70.15
69982;BME280;57319;56.274;43.980;2022-09-13T05:34:21;100217.69;;;8.57;69.55
69982;BME280;57319;56.274;43.980;2022-09-13T05:36:47;100216.84;;;8.64;68.88
69982;BME280;57319;56.274;43.980;2022-09-13T05:39:15;100216.88;;;8.76;68.87
69982;BME280;57319;56.274;43.980;2022-09-13T05:41:47;100216.06;;;8.82;68.14
69982;BME280;57319;56.274;43.980;2022-09-13T05:44:15;100217.78;;;8.94;68.07
69982;BME280;57319;56.274;43.980;2022-09-13T05:46:41;100222.91;;;9.08;67.84
69982;BME280;57319;56.274;43.980;2022-09-13T05:49:07;100228.94;;;9.21;67.42
69982;BME280;57319;56.274;43.980;2022-09-13T05:51:33;100233.22;;;9.32;67.20
69982;BME280;57319;56.274;43.980;2022-09-13T05:53:58;100232.38;;;9.41;67.15
69982;BME280;57319;56.274;43.980;2022-09-13T05:56:26;100227.22;;;9.44;67.28
69982;BME280;57319;56.274;43.980;2022-09-13T05:58:53;100234.91;;;9.60;66.65
69982;BME280;57319;56.274;43.980;2022-09-13T06:01:22;100228.03;;;9.68;66.30
69982;BME280;57319;56.274;43.980;2022-09-13T06:03:49;100227.19;;;9.77;65.98
69982;BME280;57319;56.274;43.980;2022-09-13T06:06:15;100227.16;;;9.84;65.97
69982;BME280;57319;56.274;43.980;2022-09-13T06:08:41;100210.88;;;9.95;65.95
69982;BME280;57319;56.274;43.980;2022-09-13T06:11:09;100207.41;;;10.02;65.61
69982;BME280;57319;56.274;43.980;2022-09-13T06:13:36;100201.41;;;10.06;65.50
69982;BME280;57319;56.274;43.980;2022-09-13T06:16:05;100193.66;;;10.11;65.74
69982;BME280;57319;56.274;43.980;2022-09-13T06:18:33;100197.06;;;10.14;65.17
69982;BME280;57319;56.274;43.980;2022-09-13T06:21:05;100186.78;;;10.14;64.90
69982;BME280;57319;56.274;43.980;2022-09-13T06:23:31;100186.75;;;10.19;64.90
69982;BME280;57319;56.274;43.980;2022-09-13T06:26:04;100173.91;;;10.24;64.87
69982;BME280;57319;56.274;43.980;2022-09-13T06:28:31;100163.56;;;10.28;64.68
69982;BME280;57319;56.274;43.980;2022-09-13T06:31:17;100165.25;;;10.37;64.26
69982;BME280;57319;56.274;43.980;2022-09-13T06:33:43;100165.22;;;10.46;64.26
69982;BME280;57319;56.274;43.980;2022-09-13T06:36:15;100167.78;;;10.51;63.70
69982;BME280;57319;56.274;43.980;2022-09-13T06:38:43;100169.47;;;10.53;62.86
69982;BME280;57319;56.274;43.980;2022-09-13T06:41:13;100164.31;;;10.58;62.73
69982;BME280;57319;56.274;43.980;2022-09-13T06:43:40;100176.25;;;10.67;62.88
69982;BME280;57319;56.274;43.980;2022-09-13T06:46:11;100177.09;;;10.71;62.62
69982;BME280;57319;56.274;43.980;2022-09-13T06:48:39;100185.63;;;10.74;62.12
69982;BME280;57319;56.274;43.980;2022-09-13T06:51:08;100177.84;;;10.85;62.47
69982;BME280;57319;56.274;43.980;2022-09-13T06:53:34;100178.63;;;10.98;61.92
69982;BME280;57319;56.274;43.980;2022-09-13T06:56:03;100182.78;;;11.11;61.56
69982;BME280;57319;56.274;43.980;2022-09-13T06:58:29;100180.19;;;11.16;60.81
69982;BME280;57319;56.274;43.980;2022-09-13T07:01:11;100174.97;;;11.25;60.33
69982;BME280;57319;56.274;43.980;2022-09-13T07:03:46;100176.59;;;11.35;59.60
69982;BME280;57319;56.274;43.980;2022-09-13T07:06:16;100167.94;;;11.41;58.59
69982;BME280;57319;56.274;43.980;2022-09-13T07:08:43;100179.00;;;11.51;58.42
69982;BME280;57319;56.274;43.980;2022-09-13T07:11:10;100170.34;;;11.60;57.57
69982;BME280;57319;56.274;43.980;2022-09-13T07:13:36;100163.38;;;11.69;57.69
69982;BME280;57319;56.274;43.980;2022-09-13T07:16:03;100168.44;;;11.76;57.15
69982;BME280;57319;56.274;43.980;2022-09-13T07:18:29;100166.66;;;11.82;57.01
69982;BME280;57319;56.274;43.980;2022-09-13T07:21:00;100174.28;;;11.93;56.28
69982;BME280;57319;56.274;43.980;2022-09-13T07:23:26;100169.13;;;11.92;56.03
69982;BME280;57319;56.274;43.980;2022-09-13T07:25:53;100168.19;;;12.02;56.56
69982;BME280;57319;56.274;43.980;2022-09-13T07:28:19;100164.59;;;12.14;56.23
69982;BME280;57319;56.274;43.980;2022-09-13T07:30:45;100160.16;;;12.25;56.02
69982;BME280;57319;56.274;43.980;2022-09-13T07:33:11;100154.06;;;12.31;55.39
69982;BME280;57319;56.274;43.980;2022-09-13T07:35:37;100147.13;;;12.34;55.36
69982;BME280;57319;56.274;43.980;2022-09-13T07:38:02;100143.63;;;12.38;55.07
69982;BME280;57319;56.274;43.980;2022-09-13T07:40:28;100140.97;;;12.43;54.91
69982;BME280;57319;56.274;43.980;2022-09-13T07:42:53;100152.97;;;12.49;55.02
69982;BME280;57319;56.274;43.980;2022-09-13T07:45:19;100153.78;;;12.51;54.49
69982;BME280;57319;56.274;43.980;2022-09-13T07:47:46;100160.63;;;12.53;54.46
69982;BME280;57319;56.274;43.980;2022-09-13T07:50:11;100147.59;;;12.63;54.66
69982;BME280;57319;56.274;43.980;2022-09-13T07:52:37;100155.25;;;12.67;53.94
69982;BME280;57319;56.274;43.980;2022-09-13T07:55:03;100147.56;;;12.64;53.27
69982;BME280;57319;56.274;43.980;2022-09-13T07:57:30;100152.75;;;12.64;53.52
69982;BME280;57319;56.274;43.980;2022-09-13T07:59:56;100144.94;;;12.67;52.98
69982;BME280;57319;56.274;43.980;2022-09-13T08:02:21;100149.13;;;12.75;53.35
69982;BME280;57319;56.274;43.980;2022-09-13T08:04:47;100143.75;;;12.88;53.67
69982;BME280;57319;56.274;43.980;2022-09-13T08:07:12;100142.81;;;12.93;53.31
69982;BME280;57319;56.274;43.980;2022-09-13T08:09:38;100134.00;;;13.06;53.39
69982;BME280;57319;56.274;43.980;2022-09-13T08:12:04;100138.28;;;13.07;52.21
69982;BME280;57319;56.274;43.980;2022-09-13T08:14:30;100138.16;;;13.15;52.32
69982;BME280;57319;56.274;43.980;2022-09-13T08:16:55;100133.72;;;13.21;52.30
69982;BME280;57319;56.274;43.980;2022-09-13T08:19:21;100139.59;;;13.30;51.68
69982;BME280;57319;56.274;43.980;2022-09-13T08:21:47;100133.66;;;13.26;51.43
69982;BME280;57319;56.274;43.980;2022-09-13T08:24:15;100130.16;;;13.29;51.26
69982;BME280;57319;56.274;43.980;2022-09-13T08:26:41;100123.19;;;13.35;51.51
69982;BME280;57319;56.274;43.980;2022-09-13T08:29:07;100130.03;;;13.36;50.54
69982;BME280;57319;56.274;43.980;2022-09-13T08:31:34;100131.63;;;13.45;51.01
69982;BME280;57319;56.274;43.980;2022-09-13T08:33:59;100125.56;;;13.46;50.92
69982;BME280;57319;56.274;43.980;2022-09-13T08:36:26;100125.31;;;13.58;51.13
69982;BME280;57319;56.274;43.980;2022-09-13T08:38:54;100119.94;;;13.69;51.22
69982;BME280;57319;56.274;43.980;2022-09-13T08:50:24;100121.31;;;13.87;50.02
69982;BME280;57319;56.274;43.980;2022-09-13T08:52:56;100116.03;;;13.94;50.69
69982;BME280;57319;56.274;43.980;2022-09-13T08:55:42;100118.41;;;14.03;50.30
69982;BME280;57319;56.274;43.980;2022-09-13T09:01:05;100097.72;;;14.03;49.77
69982;BME280;57319;56.274;43.980;2022-09-13T09:03:57;100098.47;;;14.06;49.88
69982;BME280;57319;56.274;43.980;2022-09-13T09:06:24;100095.78;;;14.13;49.90
69982;BME280;57319;56.274;43.980;2022-09-13T09:08:58;100102.50;;;14.20;49.54
69982;BME280;57319;56.274;43.980;2022-09-13T09:14:04;100083.25;;;14.33;50.00
69982;BME280;57319;56.274;43.980;2022-09-13T09:19:10;100083.69;;;14.51;49.41
69982;BME280;57319;56.274;43.980;2022-09-13T09:21:39;100071.41;;;14.59;49.23
69982;BME280;57319;56.274;43.980;2022-09-13T09:24:08;100070.63;;;14.55;48.61
69982;BME280;57319;56.274;43.980;2022-09-13T09:26:40;100073.25;;;14.54;48.79
69982;BME280;57319;56.274;43.980;2022-09-13T09:29:23;100069.53;;;14.66;48.48
69982;BME280;57319;56.274;43.980;2022-09-13T09:37:19;100044.94;;;14.82;47.86
69982;BME280;57319;56.274;43.980;2022-09-13T09:39:49;100053.59;;;14.83;48.10
69982;BME280;57319;56.274;43.980;2022-09-13T09:42:46;100050.06;;;14.85;47.00
69982;BME280;57319;56.274;43.980;2022-09-13T09:45:28;100045.22;;;14.73;46.89
69982;BME280;57319;56.274;43.980;2022-09-13T09:47:59;100045.06;;;14.78;47.48
69982;BME280;57319;56.274;43.980;2022-09-13T09:50:29;100045.00;;;14.81;47.06
69982;BME280;57319;56.274;43.980;2022-09-13T09:55:45;100035.94;;;14.97;47.30
69982;BME280;57319;56.274;43.980;2022-09-13T09:58:13;100031.56;;;14.99;47.02
69982;BME280;57319;56.274;43.980;2022-09-13T10:00:53;100035.97;;;14.96;47.14
69982;BME280;57319;56.274;43.980;2022-09-13T10:03:25;100042.53;;;15.09;47.28
69982;BME280;57319;56.274;43.980;2022-09-13T10:06:24;100030.38;;;15.11;46.01
69982;BME280;57319;56.274;43.980;2022-09-13T10:08:59;100032.78;;;15.19;45.90
69982;BME280;57319;56.274;43.980;2022-09-13T10:20:02;100027.91;;;15.06;46.42
69982;BME280;57319;56.274;43.980;2022-09-13T10:22:31;100024.63;;;15.00;46.62
69982;BME280;57319;56.274;43.980;2022-09-13T10:25:20;100020.31;;;15.00;46.79
69982;BME280;57319;56.274;43.980;2022-09-13T10:27:52;100015.63;;;15.13;46.29
69982;BME280;57319;56.274;43.980;2022-09-13T10:30:35;100006.75;;;15.22;45.54
69982;BME280;57319;56.274;43.980;2022-09-13T10:33:02;99988.41;;;15.30;45.23
69982;BME280;57319;56.274;43.980;2022-09-13T10:35:29;99987.31;;;15.37;45.28
69982;BME280;57319;56.274;43.980;2022-09-13T10:37:56;99986.34;;;15.41;44.99
69982;BME280;57319;56.274;43.980;2022-09-13T10:40:28;99988.97;;;15.39;45.04
69982;BME280;57319;56.274;43.980;2022-09-13T10:42:56;99989.16;;;15.33;45.27
69982;BME280;57319;56.274;43.980;2022-09-13T10:45:25;99995.84;;;15.10;45.82
69982;BME280;57319;56.274;43.980;2022-09-13T10:47:55;99992.13;;;14.88;46.10
69982;BME280;57319;56.274;43.980;2022-09-13T10:50:28;99999.44;;;14.72;46.83
69982;BME280;57319;56.274;43.980;2022-09-13T10:53:01;99992.59;;;14.69;46.82
69982;BME280;57319;56.274;43.980;2022-09-13T10:55:33;99991.88;;;14.64;46.98
69982;BME280;57319;56.274;43.980;2022-09-13T11:15:49;99971.53;;;15.15;45.70
69982;BME280;57319;56.274;43.980;2022-09-13T11:23:30;99964.44;;;14.90;45.76
69982;BME280;57319;56.274;43.980;2022-09-13T11:46:13;99959.88;;;15.30;45.79
69982;BME280;57319;56.274;43.980;2022-09-13T11:51:57;99955.81;;;15.21;45.59
69982;BME280;57319;56.274;43.980;2022-09-13T11:57:12;99958.59;;;15.13;45.48
69982;BME280;57319;56.274;43.980;2022-09-13T11:59:47;99959.88;;;14.98;46.28
69982;BME280;57319;56.274;43.980;2022-09-13T12:02:28;99962.56;;;14.95;46.83
69982;BME280;57319;56.274;43.980;2022-09-13T12:05:14;99955.91;;;14.85;47.58
69982;BME280;57319;56.274;43.980;2022-09-13T12:07:46;99962.28;;;14.73;47.74
69982;BME280;57319;56.274;43.980;2022-09-13T12:10:28;99964.19;;;14.66;47.84
69982;BME280;57319;56.274;43.980;2022-09-13T12:12:57;99957.13;;;14.73;47.30
69982;BME280;57319;56.274;43.980;2022-09-13T12:15:37;99959.63;;;14.76;47.44
69982;BME280;57319;56.274;43.980;2022-09-13T12:18:16;99950.00;;;14.81;47.16
69982;BME280;57319;56.274;43.980;2022-09-13T12:20:49;99955.06;;;14.84;47.29
69982;BME280;57319;56.274;43.980;2022-09-13T12:23:29;99949.06;;;14.82;46.97
69982;BME280;57319;56.274;43.980;2022-09-13T12:26:00;99958.78;;;14.75;47.63
69982;BME280;57319;56.274;43.980;2022-09-13T12:28:41;99945.72;;;14.79;47.78
69982;BME280;57319;56.274;43.980;2022-09-13T12:33:39;99944.06;;;14.76;47.86
69982;BME280;57319;56.274;43.980;2022-09-13T12:36:16;99946.63;;;14.78;48.32
69982;BME280;57319;56.274;43.980;2022-09-13T12:49:58;99935.94;;;14.55;48.10
69982;BME280;57319;56.274;43.980;2022-09-13T12:58:29;99926.91;;;14.37;48.49
69982;BME280;57319;56.274;43.980;2022-09-13T13:04:10;99918.59;;;14.26;48.91
69982;BME280;57319;56.274;43.980;2022-09-13T13:09:35;99908.50;;;14.15;49.04
69982;BME280;57319;56.274;43.980;2022-09-13T13:12:05;99906.91;;;14.10;49.51
69982;BME280;57319;56.274;43.980;2022-09-13T13:23:34;99881.34;;;13.97;50.74
69982;BME280;57319;56.274;43.980;2022-09-13T13:33:49;99892.56;;;13.96;50.47
69982;BME280;57319;56.274;43.980;2022-09-13T13:36:25;99881.38;;;13.94;50.77
69982;BME280;57319;56.274;43.980;2022-09-13T13:38:55;99885.75;;;13.92;50.81
69982;BME280;57319;56.274;43.980;2022-09-13T13:43:59;99874.75;;;13.84;50.90
69982;BME280;57319;56.274;43.980;2022-09-13T13:46:30;99868.00;;;13.78;51.53
69982;BME280;57319;56.274;43.980;2022-09-13T13:55:22;99851.19;;;13.58;52.17
69982;BME280;57319;56.274;43.980;2022-09-13T13:58:32;99853.91;;;13.54;52.26
69982;BME280;57319;56.274;43.980;2022-09-13T14:01:01;99853.97;;;13.51;52.24
69982;BME280;57319;56.274;43.980;2022-09-13T14:17:40;99846.06;;;13.18;53.42
69982;BME280;57319;56.274;43.980;2022-09-13T14:20:15;99834.97;;;13.13;53.40
69982;BME280;57319;56.274;43.980;2022-09-13T14:22:42;99836.00;;;13.05;53.92
69982;BME280;57319;56.274;43.980;2022-09-13T14:27:47;99830.06;;;13.00;54.25
69982;BME280;57319;56.274;43.980;2022-09-13T14:32:45;99822.56;;;12.88;55.34
69982;BME280;57319;56.274;43.980;2022-09-13T14:38:21;99826.19;;;12.81;55.19
69982;BME280;57319;56.274;43.980;2022-09-13T14:40:57;99825.41;;;12.76;55.02
69982;BME280;57319;56.274;43.980;2022-09-13T14:43:35;99818.66;;;12.70;55.60
69982;BME280;57319;56.274;43.980;2022-09-13T14:46:12;99811.81;;;12.67;55.32
69982;BME280;57319;56.274;43.980;2022-09-13T14:48:48;99811.16;;;12.58;55.87
69982;BME280;57319;56.274;43.980;2022-09-13T14:51:27;99810.38;;;12.52;55.89
69982;BME280;57319;56.274;43.980;2022-09-13T14:53:59;99807.03;;;12.49;56.19
69982;BME280;57319;56.274;43.980;2022-09-13T14:56:39;99809.72;;;12.43;56.59
69982;BME280;57319;56.274;43.980;2022-09-13T14:59:15;99801.22;;;12.36;56.71
69982;BME280;57319;56.274;43.980;2022-09-13T15:01:43;99809.06;;;12.31;56.97
69982;BME280;57319;56.274;43.980;2022-09-13T15:04:09;99809.16;;;12.27;57.17
69982;BME280;57319;56.274;43.980;2022-09-13T15:06:37;99810.13;;;12.21;56.90
69982;BME280;57319;56.274;43.980;2022-09-13T15:11:37;99815.41;;;12.15;57.06
69982;BME280;57319;56.274;43.980;2022-09-13T15:14:22;99814.69;;;12.07;57.48
69982;BME280;57319;56.274;43.980;2022-09-13T15:16:48;99818.22;;;12.01;57.42
69982;BME280;57319;56.274;43.980;2022-09-13T15:19:16;99817.44;;;11.97;57.53
69982;BME280;57319;56.274;43.980;2022-09-13T15:21:53;99818.31;;;11.93;57.63
69982;BME280;57319;56.274;43.980;2022-09-13T15:24:32;99826.19;;;11.87;57.97
69982;BME280;57319;56.274;43.980;2022-09-13T15:27:06;99826.19;;;11.85;58.41
69982;BME280;57319;56.274;43.980;2022-09-13T15:29:33;99831.41;;;11.82;58.50
69982;BME280;57319;56.274;43.980;2022-09-13T15:32:03;99834.00;;;11.81;58.16
69982;BME280;57319;56.274;43.980;2022-09-13T15:34:29;99830.63;;;11.77;58.65
69982;BME280;57319;56.274;43.980;2022-09-13T15:39:26;99836.75;;;11.70;58.76
69982;BME280;57319;56.274;43.980;2022-09-13T15:41:54;99834.25;;;11.65;59.03
69982;BME280;57319;56.274;43.980;2022-09-13T15:44:21;99833.38;;;11.65;58.97
69982;BME280;57319;56.274;43.980;2022-09-13T15:46:50;99842.06;;;11.59;59.01
69982;BME280;57319;56.274;43.980;2022-09-13T15:49:23;99832.75;;;11.52;59.39
69982;BME280;57319;56.274;43.980;2022-09-13T15:51:56;99842.31;;;11.44;60.12
69982;BME280;57319;56.274;43.980;2022-09-13T15:54:26;99844.06;;;11.42;60.22
69982;BME280;57319;56.274;43.980;2022-09-13T15:56:55;99846.66;;;11.40;60.22
69982;BME280;57319;56.274;43.980;2022-09-13T15:59:21;99844.09;;;11.38;60.34
69982;BME280;57319;56.274;43.980;2022-09-13T16:01:48;99845.00;;;11.34;60.72
69982;BME280;57319;56.274;43.980;2022-09-13T16:04:14;99846.81;;;11.28;60.47
69982;BME280;57319;56.274;43.980;2022-09-13T16:06:40;99846.91;;;11.23;61.49
69982;BME280;57319;56.274;43.980;2022-09-13T16:09:26;99845.25;;;11.17;61.78
69982;BME280;57319;56.274;43.980;2022-09-13T16:11:52;99847.03;;;11.12;61.60
69982;BME280;57319;56.274;43.980;2022-09-13T16:14:18;99841.91;;;11.11;62.00
69982;BME280;57319;56.274;43.980;2022-09-13T16:16:44;99834.25;;;11.06;62.04
69982;BME280;57319;56.274;43.980;2022-09-13T16:19:19;99834.31;;;11.01;62.33
69982;BME280;57319;56.274;43.980;2022-09-13T16:21:45;99831.72;;;11.01;62.27
69982;BME280;57319;56.274;43.980;2022-09-13T16:24:11;99834.38;;;10.97;62.56
69982;BME280;57319;56.274;43.980;2022-09-13T16:26:38;99832.75;;;10.91;63.03
69982;BME280;57319;56.274;43.980;2022-09-13T16:29:04;99824.16;;;10.89;62.97
69982;BME280;57319;56.274;43.980;2022-09-13T16:31:30;99821.59;;;10.89;62.83
69982;BME280;57319;56.274;43.980;2022-09-13T16:33:55;99820.03;;;10.79;63.38
69982;BME280;57319;56.274;43.980;2022-09-13T16:36:21;99818.31;;;10.76;63.44
69982;BME280;57319;56.274;43.980;2022-09-13T16:38:47;99826.88;;;10.77;63.57
69982;BME280;57319;56.274;43.980;2022-09-13T16:41:12;99826.06;;;10.75;63.86
69982;BME280;57319;56.274;43.980;2022-09-13T16:43:38;99822.69;;;10.71;63.65
69982;BME280;57319;56.274;43.980;2022-09-13T16:46:08;99829.56;;;10.71;63.48
69982;BME280;57319;56.274;43.980;2022-09-13T16:48:35;99815.84;;;10.68;63.79
69982;BME280;57319;56.274;43.980;2022-09-13T16:51:09;99825.31;;;10.66;63.97